sensor_id;sensor_type;location;lat;lon;timestamp;P1;durP1;ratioP1;P2;durP2;ratioP2
71679;SDS011;59512;42.662;23.254;2022-07-25T00:00:36;13.83;;;10.37;;
71679;SDS011;59512;42.662;23.254;2022-07-25T00:03:01;13.70;;;10.05;;
71679;SDS011;59512;42.662;23.254;2022-07-25T00:05:27;15.00;;;10.10;;
71679;SDS011;59512;42.662;23.254;2022-07-25T00:07:52;14.40;;;10.03;;
71679;SDS011;59512;42.662;23.254;2022-07-25T00:10:17;15.38;;;10.13;;
71679;SDS011;59512;42.662;23.254;2022-07-25T00:12:43;13.57;;;9.88;;
71679;SDS011;59512;42.662;23.254;2022-07-25T00:15:09;13.13;;;10.13;;
71679;SDS011;59512;42.662;23.254;2022-07-25T00:17:34;15.03;;;10.60;;
71679;SDS011;59512;42.662;23.254;2022-07-25T00:19:59;14.50;;;10.03;;
71679;SDS011;59512;42.662;23.254;2022-07-25T00:22:25;14.50;;;10.45;;
71679;SDS011;59512;42.662;23.254;2022-07-25T00:24:50;14.87;;;10.23;;
71679;SDS011;59512;42.662;23.254;2022-07-25T00:27:15;16.80;;;10.77;;
71679;SDS011;59512;42.662;23.254;2022-07-25T00:29:41;15.23;;;9.83;;
71679;SDS011;59512;42.662;23.254;2022-07-25T00:32:06;17.93;;;10.80;;
71679;SDS011;59512;42.662;23.254;2022-07-25T00:34:31;15.33;;;11.10;;
71679;SDS011;59512;42.662;23.254;2022-07-25T00:36:57;15.40;;;10.93;;
71679;SDS011;59512;42.662;23.254;2022-07-25T00:39:22;15.87;;;10.83;;
71679;SDS011;59512;42.662;23.254;2022-07-25T00:41:47;16.60;;;10.70;;
71679;SDS011;59512;42.662;23.254;2022-07-25T00:44:26;13.00;;;10.00;;
71679;SDS011;59512;42.662;23.254;2022-07-25T00:46:52;15.88;;;11.43;;
71679;SDS011;59512;42.662;23.254;2022-07-25T00:49:17;15.50;;;11.07;;
71679;SDS011;59512;42.662;23.254;2022-07-25T00:51:43;14.20;;;10.60;;
71679;SDS011;59512;42.662;23.254;2022-07-25T00:54:08;14.77;;;10.68;;
71679;SDS011;59512;42.662;23.254;2022-07-25T00:56:34;15.50;;;10.67;;
71679;SDS011;59512;42.662;23.254;2022-07-25T00:58:59;14.77;;;10.23;;
71679;SDS011;59512;42.662;23.254;2022-07-25T01:01:25;14.43;;;11.30;;
71679;SDS011;59512;42.662;23.254;2022-07-25T01:03:50;14.40;;;10.23;;
71679;SDS011;59512;42.662;23.254;2022-07-25T01:06:15;15.57;;;10.37;;
71679;SDS011;59512;42.662;23.254;2022-07-25T01:08:40;17.17;;;11.13;;
71679;SDS011;59512;42.662;23.254;2022-07-25T01:11:06;15.82;;;11.63;;
71679;SDS011;59512;42.662;23.254;2022-07-25T01:13:32;15.73;;;10.30;;
71679;SDS011;59512;42.662;23.254;2022-07-25T01:15:58;15.00;;;10.50;;
71679;SDS011;59512;42.662;23.254;2022-07-25T01:18:23;15.23;;;10.97;;
71679;SDS011;59512;42.662;23.254;2022-07-25T01:20:49;14.17;;;10.73;;
71679;SDS011;59512;42.662;23.254;2022-07-25T01:23:14;16.80;;;10.53;;
71679;SDS011;59512;42.662;23.254;2022-07-25T01:25:39;14.30;;;10.80;;
71679;SDS011;59512;42.662;23.254;2022-07-25T01:28:04;15.03;;;10.20;;
71679;SDS011;59512;42.662;23.254;2022-07-25T01:30:30;16.33;;;10.93;;
71679;SDS011;59512;42.662;23.254;2022-07-25T01:32:55;17.53;;;11.63;;
71679;SDS011;59512;42.662;23.254;2022-07-25T01:35:21;13.40;;;10.32;;
71679;SDS011;59512;42.662;23.254;2022-07-25T01:37:46;14.50;;;10.73;;
71679;SDS011;59512;42.662;23.254;2022-07-25T01:40:11;13.90;;;10.23;;
71679;SDS011;59512;42.662;23.254;2022-07-25T01:42:37;14.73;;;10.10;;
71679;SDS011;59512;42.662;23.254;2022-07-25T01:45:03;13.93;;;10.63;;
71679;SDS011;59512;42.662;23.254;2022-07-25T01:47:28;13.70;;;9.43;;
71679;SDS011;59512;42.662;23.254;2022-07-25T01:49:53;13.07;;;10.00;;
71679;SDS011;59512;42.662;23.254;2022-07-25T01:52:19;15.23;;;10.40;;
71679;SDS011;59512;42.662;23.254;2022-07-25T01:54:44;14.90;;;10.23;;
71679;SDS011;59512;42.662;23.254;2022-07-25T01:57:09;13.50;;;9.90;;
71679;SDS011;59512;42.662;23.254;2022-07-25T01:59:38;13.90;;;10.00;;
71679;SDS011;59512;42.662;23.254;2022-07-25T02:02:04;14.38;;;10.45;;
71679;SDS011;59512;42.662;23.254;2022-07-25T02:04:29;13.63;;;9.95;;
71679;SDS011;59512;42.662;23.254;2022-07-25T02:06:55;15.18;;;10.25;;
71679;SDS011;59512;42.662;23.254;2022-07-25T02:09:20;15.83;;;10.43;;
71679;SDS011;59512;42.662;23.254;2022-07-25T02:11:45;13.53;;;9.97;;
71679;SDS011;59512;42.662;23.254;2022-07-25T02:14:10;16.03;;;10.40;;
71679;SDS011;59512;42.662;23.254;2022-07-25T02:16:36;14.37;;;10.17;;
71679;SDS011;59512;42.662;23.254;2022-07-25T02:19:01;13.97;;;9.80;;
71679;SDS011;59512;42.662;23.254;2022-07-25T02:21:27;15.07;;;10.80;;
71679;SDS011;59512;42.662;23.254;2022-07-25T02:23:52;15.07;;;10.53;;
71679;SDS011;59512;42.662;23.254;2022-07-25T02:26:18;14.70;;;10.70;;
71679;SDS011;59512;42.662;23.254;2022-07-25T02:28:43;18.57;;;11.60;;
71679;SDS011;59512;42.662;23.254;2022-07-25T02:31:08;16.43;;;11.70;;
71679;SDS011;59512;42.662;23.254;2022-07-25T02:33:34;14.80;;;10.40;;
71679;SDS011;59512;42.662;23.254;2022-07-25T02:35:59;13.93;;;10.98;;
71679;SDS011;59512;42.662;23.254;2022-07-25T02:38:24;16.43;;;11.30;;
71679;SDS011;59512;42.662;23.254;2022-07-25T02:40:51;15.80;;;10.73;;
71679;SDS011;59512;42.662;23.254;2022-07-25T02:43:16;17.33;;;11.88;;
71679;SDS011;59512;42.662;23.254;2022-07-25T02:45:42;16.27;;;10.50;;
71679;SDS011;59512;42.662;23.254;2022-07-25T02:48:07;16.27;;;10.80;;
71679;SDS011;59512;42.662;23.254;2022-07-25T02:50:32;18.80;;;10.80;;
71679;SDS011;59512;42.662;23.254;2022-07-25T02:52:57;18.63;;;10.77;;
71679;SDS011;59512;42.662;23.254;2022-07-25T02:55:23;16.47;;;11.07;;
71679;SDS011;59512;42.662;23.254;2022-07-25T02:57:48;16.73;;;11.33;;
71679;SDS011;59512;42.662;23.254;2022-07-25T03:00:13;14.87;;;10.13;;
71679;SDS011;59512;42.662;23.254;2022-07-25T03:02:39;15.60;;;10.40;;
71679;SDS011;59512;42.662;23.254;2022-07-25T03:05:05;16.53;;;10.20;;
71679;SDS011;59512;42.662;23.254;2022-07-25T03:07:31;14.45;;;9.80;;
71679;SDS011;59512;42.662;23.254;2022-07-25T03:09:56;14.90;;;10.00;;
71679;SDS011;59512;42.662;23.254;2022-07-25T03:12:21;15.60;;;10.17;;
71679;SDS011;59512;42.662;23.254;2022-07-25T03:14:46;14.07;;;9.57;;
71679;SDS011;59512;42.662;23.254;2022-07-25T03:17:12;16.80;;;10.93;;
71679;SDS011;59512;42.662;23.254;2022-07-25T03:19:37;16.33;;;10.57;;
71679;SDS011;59512;42.662;23.254;2022-07-25T03:22:02;13.70;;;10.10;;
71679;SDS011;59512;42.662;23.254;2022-07-25T03:24:28;15.20;;;9.67;;
71679;SDS011;59512;42.662;23.254;2022-07-25T03:26:53;15.17;;;10.60;;
71679;SDS011;59512;42.662;23.254;2022-07-25T03:29:19;15.85;;;10.18;;
71679;SDS011;59512;42.662;23.254;2022-07-25T03:31:44;14.50;;;9.60;;
71679;SDS011;59512;42.662;23.254;2022-07-25T03:34:09;15.30;;;10.17;;
71679;SDS011;59512;42.662;23.254;2022-07-25T03:36:35;12.80;;;9.37;;
71679;SDS011;59512;42.662;23.254;2022-07-25T03:39:00;15.30;;;10.20;;
71679;SDS011;59512;42.662;23.254;2022-07-25T03:41:25;13.60;;;9.70;;
71679;SDS011;59512;42.662;23.254;2022-07-25T03:43:51;15.13;;;9.40;;
71679;SDS011;59512;42.662;23.254;2022-07-25T03:46:16;17.70;;;10.37;;
71679;SDS011;59512;42.662;23.254;2022-07-25T03:48:41;15.67;;;10.37;;
71679;SDS011;59512;42.662;23.254;2022-07-25T03:51:07;17.93;;;11.27;;
71679;SDS011;59512;42.662;23.254;2022-07-25T03:53:32;18.73;;;10.20;;
71679;SDS011;59512;42.662;23.254;2022-07-25T03:56:17;14.50;;;10.00;;
71679;SDS011;59512;42.662;23.254;2022-07-25T03:58:43;12.80;;;9.10;;
71679;SDS011;59512;42.662;23.254;2022-07-25T04:01:08;14.27;;;10.17;;
71679;SDS011;59512;42.662;23.254;2022-07-25T04:03:33;15.97;;;10.37;;
71679;SDS011;59512;42.662;23.254;2022-07-25T04:05:58;14.27;;;9.63;;
71679;SDS011;59512;42.662;23.254;2022-07-25T04:08:24;14.83;;;9.87;;
71679;SDS011;59512;42.662;23.254;2022-07-25T04:10:49;15.77;;;9.87;;
71679;SDS011;59512;42.662;23.254;2022-07-25T04:13:14;18.53;;;9.30;;
71679;SDS011;59512;42.662;23.254;2022-07-25T04:15:39;16.17;;;9.40;;
71679;SDS011;59512;42.662;23.254;2022-07-25T04:18:05;12.27;;;8.47;;
71679;SDS011;59512;42.662;23.254;2022-07-25T04:20:30;14.23;;;9.23;;
71679;SDS011;59512;42.662;23.254;2022-07-25T04:22:55;15.20;;;9.23;;
71679;SDS011;59512;42.662;23.254;2022-07-25T04:25:21;13.80;;;9.07;;
71679;SDS011;59512;42.662;23.254;2022-07-25T04:27:46;17.43;;;9.43;;
71679;SDS011;59512;42.662;23.254;2022-07-25T04:30:11;13.65;;;9.05;;
71679;SDS011;59512;42.662;23.254;2022-07-25T04:32:37;18.67;;;9.33;;
71679;SDS011;59512;42.662;23.254;2022-07-25T04:35:02;15.77;;;9.47;;
71679;SDS011;59512;42.662;23.254;2022-07-25T04:37:27;14.37;;;8.73;;
71679;SDS011;59512;42.662;23.254;2022-07-25T04:39:53;13.87;;;9.97;;
71679;SDS011;59512;42.662;23.254;2022-07-25T04:42:18;16.10;;;9.30;;
71679;SDS011;59512;42.662;23.254;2022-07-25T04:44:43;14.67;;;9.43;;
71679;SDS011;59512;42.662;23.254;2022-07-25T04:47:08;13.10;;;8.53;;
71679;SDS011;59512;42.662;23.254;2022-07-25T04:49:34;14.23;;;9.10;;
71679;SDS011;59512;42.662;23.254;2022-07-25T04:51:59;11.70;;;8.30;;
71679;SDS011;59512;42.662;23.254;2022-07-25T04:54:24;12.93;;;8.50;;
71679;SDS011;59512;42.662;23.254;2022-07-25T04:56:49;13.43;;;8.80;;
71679;SDS011;59512;42.662;23.254;2022-07-25T04:59:15;13.10;;;8.57;;
71679;SDS011;59512;42.662;23.254;2022-07-25T05:01:40;12.17;;;8.47;;
71679;SDS011;59512;42.662;23.254;2022-07-25T05:04:05;12.05;;;8.15;;
71679;SDS011;59512;42.662;23.254;2022-07-25T05:06:31;12.90;;;8.63;;
71679;SDS011;59512;42.662;23.254;2022-07-25T05:08:57;15.00;;;9.00;;
71679;SDS011;59512;42.662;23.254;2022-07-25T05:11:22;12.73;;;8.60;;
71679;SDS011;59512;42.662;23.254;2022-07-25T05:13:48;14.27;;;8.73;;
71679;SDS011;59512;42.662;23.254;2022-07-25T05:16:13;11.10;;;7.90;;
71679;SDS011;59512;42.662;23.254;2022-07-25T05:18:38;12.77;;;8.40;;
71679;SDS011;59512;42.662;23.254;2022-07-25T05:21:04;12.20;;;7.67;;
71679;SDS011;59512;42.662;23.254;2022-07-25T05:23:29;16.00;;;8.90;;
71679;SDS011;59512;42.662;23.254;2022-07-25T05:25:54;11.93;;;8.40;;
71679;SDS011;59512;42.662;23.254;2022-07-25T05:28:19;10.40;;;7.38;;
71679;SDS011;59512;42.662;23.254;2022-07-25T05:30:45;12.53;;;7.87;;
71679;SDS011;59512;42.662;23.254;2022-07-25T05:33:10;10.83;;;7.70;;
71679;SDS011;59512;42.662;23.254;2022-07-25T05:35:35;11.37;;;8.17;;
71679;SDS011;59512;42.662;23.254;2022-07-25T05:38:01;15.40;;;8.00;;
71679;SDS011;59512;42.662;23.254;2022-07-25T05:40:26;15.30;;;8.23;;
71679;SDS011;59512;42.662;23.254;2022-07-25T05:42:51;12.20;;;7.70;;
71679;SDS011;59512;42.662;23.254;2022-07-25T05:45:16;12.07;;;8.00;;
71679;SDS011;59512;42.662;23.254;2022-07-25T05:47:42;11.40;;;7.73;;
71679;SDS011;59512;42.662;23.254;2022-07-25T05:50:07;10.53;;;7.60;;
71679;SDS011;59512;42.662;23.254;2022-07-25T05:52:32;14.17;;;8.00;;
71679;SDS011;59512;42.662;23.254;2022-07-25T05:54:58;11.25;;;7.88;;
71679;SDS011;59512;42.662;23.254;2022-07-25T05:57:23;10.90;;;7.00;;
71679;SDS011;59512;42.662;23.254;2022-07-25T05:59:48;11.27;;;7.83;;
71679;SDS011;59512;42.662;23.254;2022-07-25T06:02:14;11.37;;;7.47;;
71679;SDS011;59512;42.662;23.254;2022-07-25T06:04:39;12.60;;;7.40;;
71679;SDS011;59512;42.662;23.254;2022-07-25T06:07:04;13.40;;;7.47;;
71679;SDS011;59512;42.662;23.254;2022-07-25T06:09:29;19.00;;;7.87;;
71679;SDS011;59512;42.662;23.254;2022-07-25T06:11:56;12.80;;;7.75;;
71679;SDS011;59512;42.662;23.254;2022-07-25T06:14:21;11.33;;;7.50;;
71679;SDS011;59512;42.662;23.254;2022-07-25T06:16:47;11.13;;;7.50;;
71679;SDS011;59512;42.662;23.254;2022-07-25T06:19:12;13.70;;;7.93;;
71679;SDS011;59512;42.662;23.254;2022-07-25T06:21:37;11.93;;;7.70;;
71679;SDS011;59512;42.662;23.254;2022-07-25T06:24:03;11.80;;;8.10;;
71679;SDS011;59512;42.662;23.254;2022-07-25T06:26:28;12.00;;;7.40;;
71679;SDS011;59512;42.662;23.254;2022-07-25T06:28:53;10.60;;;6.90;;
71679;SDS011;59512;42.662;23.254;2022-07-25T06:31:19;10.60;;;7.50;;
71679;SDS011;59512;42.662;23.254;2022-07-25T06:33:44;13.88;;;7.85;;
71679;SDS011;59512;42.662;23.254;2022-07-25T06:36:09;11.43;;;7.82;;
71679;SDS011;59512;42.662;23.254;2022-07-25T06:38:35;12.87;;;7.87;;
71679;SDS011;59512;42.662;23.254;2022-07-25T06:41:00;14.40;;;8.80;;
71679;SDS011;59512;42.662;23.254;2022-07-25T06:43:25;15.30;;;12.47;;
71679;SDS011;59512;42.662;23.254;2022-07-25T06:45:51;12.40;;;9.67;;
71679;SDS011;59512;42.662;23.254;2022-07-25T06:48:16;11.57;;;8.10;;
71679;SDS011;59512;42.662;23.254;2022-07-25T06:50:43;15.23;;;8.43;;
71679;SDS011;59512;42.662;23.254;2022-07-25T06:53:09;11.35;;;7.57;;
71679;SDS011;59512;42.662;23.254;2022-07-25T06:55:34;14.10;;;7.93;;
71679;SDS011;59512;42.662;23.254;2022-07-25T06:57:59;10.20;;;7.53;;
71679;SDS011;59512;42.662;23.254;2022-07-25T07:00:25;11.33;;;7.77;;
71679;SDS011;59512;42.662;23.254;2022-07-25T07:02:51;13.57;;;7.90;;
71679;SDS011;59512;42.662;23.254;2022-07-25T07:05:17;14.40;;;8.27;;
71679;SDS011;59512;42.662;23.254;2022-07-25T07:07:42;11.67;;;7.80;;
71679;SDS011;59512;42.662;23.254;2022-07-25T07:10:08;15.47;;;8.03;;
71679;SDS011;59512;42.662;23.254;2022-07-25T07:12:33;11.90;;;7.73;;
71679;SDS011;59512;42.662;23.254;2022-07-25T07:14:58;11.70;;;7.47;;
71679;SDS011;59512;42.662;23.254;2022-07-25T07:17:24;11.90;;;7.57;;
71679;SDS011;59512;42.662;23.254;2022-07-25T07:19:49;12.53;;;8.13;;
71679;SDS011;59512;42.662;23.254;2022-07-25T07:22:14;10.83;;;7.73;;
71679;SDS011;59512;42.662;23.254;2022-07-25T07:24:39;12.63;;;8.30;;
71679;SDS011;59512;42.662;23.254;2022-07-25T07:27:05;10.53;;;7.63;;
71679;SDS011;59512;42.662;23.254;2022-07-25T07:29:30;13.03;;;9.73;;
71679;SDS011;59512;42.662;23.254;2022-07-25T07:31:55;14.03;;;8.77;;
71679;SDS011;59512;42.662;23.254;2022-07-25T07:46:11;10.98;;;8.05;;
71679;SDS011;59512;42.662;23.254;2022-07-25T07:48:37;11.25;;;8.07;;
71679;SDS011;59512;42.662;23.254;2022-07-25T07:51:02;13.47;;;8.17;;
71679;SDS011;59512;42.662;23.254;2022-07-25T07:53:28;11.47;;;8.00;;
71679;SDS011;59512;42.662;23.254;2022-07-25T07:56:13;11.40;;;8.20;;
71679;SDS011;59512;42.662;23.254;2022-07-25T07:58:38;12.60;;;8.35;;
71679;SDS011;59512;42.662;23.254;2022-07-25T08:01:04;12.10;;;8.10;;
71679;SDS011;59512;42.662;23.254;2022-07-25T08:03:32;12.32;;;8.15;;
71679;SDS011;59512;42.662;23.254;2022-07-25T08:05:57;10.90;;;8.20;;
71679;SDS011;59512;42.662;23.254;2022-07-25T08:08:23;11.30;;;8.27;;
71679;SDS011;59512;42.662;23.254;2022-07-25T08:10:48;10.65;;;8.23;;
71679;SDS011;59512;42.662;23.254;2022-07-25T08:15:43;10.63;;;7.57;;
71679;SDS011;59512;42.662;23.254;2022-07-25T08:18:08;10.70;;;8.13;;
71679;SDS011;59512;42.662;23.254;2022-07-25T08:20:33;12.88;;;7.78;;
71679;SDS011;59512;42.662;23.254;2022-07-25T08:22:59;10.40;;;7.73;;
71679;SDS011;59512;42.662;23.254;2022-07-25T08:25:24;12.03;;;7.87;;
71679;SDS011;59512;42.662;23.254;2022-07-25T08:27:49;13.30;;;8.40;;
71679;SDS011;59512;42.662;23.254;2022-07-25T08:30:15;12.67;;;8.10;;
71679;SDS011;59512;42.662;23.254;2022-07-25T08:32:53;10.55;;;7.45;;
71679;SDS011;59512;42.662;23.254;2022-07-25T08:35:21;12.33;;;8.00;;
71679;SDS011;59512;42.662;23.254;2022-07-25T08:37:47;13.75;;;7.55;;
71679;SDS011;59512;42.662;23.254;2022-07-25T08:40:13;10.77;;;7.78;;
71679;SDS011;59512;42.662;23.254;2022-07-25T08:56:02;10.15;;;7.20;;
71679;SDS011;59512;42.662;23.254;2022-07-25T08:58:28;11.85;;;7.18;;
71679;SDS011;59512;42.662;23.254;2022-07-25T09:00:53;10.30;;;7.27;;
71679;SDS011;59512;42.662;23.254;2022-07-25T09:03:18;9.73;;;7.13;;
71679;SDS011;59512;42.662;23.254;2022-07-25T09:05:44;11.40;;;7.13;;
71679;SDS011;59512;42.662;23.254;2022-07-25T09:08:11;9.07;;;6.90;;
71679;SDS011;59512;42.662;23.254;2022-07-25T09:10:36;9.98;;;7.05;;
71679;SDS011;59512;42.662;23.254;2022-07-25T09:13:04;10.70;;;7.20;;
71679;SDS011;59512;42.662;23.254;2022-07-25T09:15:33;10.43;;;7.10;;
71679;SDS011;59512;42.662;23.254;2022-07-25T09:17:59;10.60;;;6.83;;
71679;SDS011;59512;42.662;23.254;2022-07-25T09:20:46;11.63;;;7.07;;
71679;SDS011;59512;42.662;23.254;2022-07-25T09:23:11;10.30;;;7.25;;
71679;SDS011;59512;42.662;23.254;2022-07-25T09:25:36;12.50;;;7.78;;
71679;SDS011;59512;42.662;23.254;2022-07-25T09:28:11;10.33;;;6.93;;
71679;SDS011;59512;42.662;23.254;2022-07-25T09:30:37;10.57;;;7.10;;
71679;SDS011;59512;42.662;23.254;2022-07-25T09:33:03;10.57;;;6.95;;
71679;SDS011;59512;42.662;23.254;2022-07-25T09:35:32;11.70;;;7.57;;
71679;SDS011;59512;42.662;23.254;2022-07-25T09:38:08;11.93;;;7.75;;
71679;SDS011;59512;42.662;23.254;2022-07-25T09:40:34;10.52;;;7.72;;
71679;SDS011;59512;42.662;23.254;2022-07-25T09:42:59;10.37;;;7.67;;
71679;SDS011;59512;42.662;23.254;2022-07-25T09:45:24;10.87;;;7.27;;
71679;SDS011;59512;42.662;23.254;2022-07-25T09:50:16;9.90;;;7.25;;
71679;SDS011;59512;42.662;23.254;2022-07-25T09:52:41;10.98;;;7.32;;
71679;SDS011;59512;42.662;23.254;2022-07-25T09:55:07;13.30;;;7.68;;
71679;SDS011;59512;42.662;23.254;2022-07-25T09:57:34;11.50;;;7.50;;
71679;SDS011;59512;42.662;23.254;2022-07-25T10:00:00;11.23;;;7.82;;
71679;SDS011;59512;42.662;23.254;2022-07-25T10:02:30;11.43;;;7.30;;
71679;SDS011;59512;42.662;23.254;2022-07-25T10:07:28;10.88;;;7.45;;
71679;SDS011;59512;42.662;23.254;2022-07-25T10:09:54;10.60;;;6.87;;
71679;SDS011;59512;42.662;23.254;2022-07-25T10:12:20;12.17;;;7.20;;
71679;SDS011;59512;42.662;23.254;2022-07-25T10:15:05;10.48;;;7.40;;
71679;SDS011;59512;42.662;23.254;2022-07-25T10:17:31;10.13;;;7.30;;
71679;SDS011;59512;42.662;23.254;2022-07-25T10:19:57;10.43;;;7.27;;
71679;SDS011;59512;42.662;23.254;2022-07-25T10:22:34;8.98;;;6.72;;
71679;SDS011;59512;42.662;23.254;2022-07-25T10:25:06;10.75;;;6.88;;
71679;SDS011;59512;42.662;23.254;2022-07-25T10:27:38;9.35;;;6.75;;
71679;SDS011;59512;42.662;23.254;2022-07-25T10:30:09;11.50;;;6.85;;
71679;SDS011;59512;42.662;23.254;2022-07-25T10:32:34;11.03;;;6.93;;
71679;SDS011;59512;42.662;23.254;2022-07-25T10:34:59;9.75;;;6.90;;
71679;SDS011;59512;42.662;23.254;2022-07-25T10:37:25;9.80;;;7.00;;
71679;SDS011;59512;42.662;23.254;2022-07-25T10:39:51;13.35;;;7.35;;
71679;SDS011;59512;42.662;23.254;2022-07-25T10:42:19;9.80;;;6.60;;
71679;SDS011;59512;42.662;23.254;2022-07-25T10:44:46;11.10;;;7.03;;
71679;SDS011;59512;42.662;23.254;2022-07-25T10:47:12;14.00;;;7.63;;
71679;SDS011;59512;42.662;23.254;2022-07-25T10:49:41;11.20;;;7.20;;
71679;SDS011;59512;42.662;23.254;2022-07-25T10:52:13;10.45;;;6.72;;
71679;SDS011;59512;42.662;23.254;2022-07-25T10:54:39;10.83;;;7.00;;
71679;SDS011;59512;42.662;23.254;2022-07-25T10:57:05;10.07;;;6.50;;
71679;SDS011;59512;42.662;23.254;2022-07-25T10:59:34;8.40;;;6.07;;
71679;SDS011;59512;42.662;23.254;2022-07-25T11:02:00;9.80;;;6.72;;
71679;SDS011;59512;42.662;23.254;2022-07-25T11:04:27;9.80;;;6.93;;
71679;SDS011;59512;42.662;23.254;2022-07-25T11:06:53;10.65;;;6.70;;
71679;SDS011;59512;42.662;23.254;2022-07-25T11:09:25;11.20;;;6.80;;
71679;SDS011;59512;42.662;23.254;2022-07-25T11:11:51;9.70;;;7.00;;
71679;SDS011;59512;42.662;23.254;2022-07-25T11:16:43;9.10;;;6.53;;
71679;SDS011;59512;42.662;23.254;2022-07-25T11:19:25;11.68;;;6.70;;
71679;SDS011;59512;42.662;23.254;2022-07-25T11:21:58;10.13;;;6.25;;
71679;SDS011;59512;42.662;23.254;2022-07-25T11:24:40;8.37;;;6.00;;
71679;SDS011;59512;42.662;23.254;2022-07-25T11:27:06;9.93;;;5.95;;
71679;SDS011;59512;42.662;23.254;2022-07-25T11:29:32;7.88;;;6.00;;
71679;SDS011;59512;42.662;23.254;2022-07-25T11:32:02;8.75;;;6.45;;
71679;SDS011;59512;42.662;23.254;2022-07-25T11:34:31;11.00;;;7.03;;
71679;SDS011;59512;42.662;23.254;2022-07-25T11:36:58;9.90;;;6.93;;
71679;SDS011;59512;42.662;23.254;2022-07-25T11:39:28;9.13;;;6.40;;
71679;SDS011;59512;42.662;23.254;2022-07-25T11:42:04;9.23;;;6.22;;
71679;SDS011;59512;42.662;23.254;2022-07-25T11:44:39;10.40;;;6.10;;
71679;SDS011;59512;42.662;23.254;2022-07-25T11:47:05;8.23;;;5.93;;
71679;SDS011;59512;42.662;23.254;2022-07-25T11:49:31;8.30;;;6.17;;
71679;SDS011;59512;42.662;23.254;2022-07-25T11:52:16;9.95;;;6.38;;
71679;SDS011;59512;42.662;23.254;2022-07-25T11:54:49;12.20;;;6.60;;
71679;SDS011;59512;42.662;23.254;2022-07-25T11:57:18;9.02;;;6.55;;
71679;SDS011;59512;42.662;23.254;2022-07-25T11:59:44;9.43;;;6.22;;
71679;SDS011;59512;42.662;23.254;2022-07-25T12:02:19;12.63;;;7.07;;
71679;SDS011;59512;42.662;23.254;2022-07-25T12:04:52;11.40;;;6.72;;
71679;SDS011;59512;42.662;23.254;2022-07-25T12:07:17;10.93;;;6.95;;
71679;SDS011;59512;42.662;23.254;2022-07-25T12:09:42;11.07;;;6.97;;
71679;SDS011;59512;42.662;23.254;2022-07-25T12:12:08;10.23;;;7.13;;
71679;SDS011;59512;42.662;23.254;2022-07-25T12:14:42;13.00;;;6.97;;
71679;SDS011;59512;42.662;23.254;2022-07-25T12:17:07;11.52;;;7.57;;
71679;SDS011;59512;42.662;23.254;2022-07-25T12:19:33;13.27;;;7.30;;
71679;SDS011;59512;42.662;23.254;2022-07-25T12:21:58;10.83;;;6.43;;
71679;SDS011;59512;42.662;23.254;2022-07-25T12:24:23;9.97;;;6.97;;
71679;SDS011;59512;42.662;23.254;2022-07-25T12:26:48;10.63;;;6.60;;
71679;SDS011;59512;42.662;23.254;2022-07-25T12:29:14;10.67;;;6.37;;
71679;SDS011;59512;42.662;23.254;2022-07-25T12:31:39;9.87;;;6.47;;
71679;SDS011;59512;42.662;23.254;2022-07-25T12:34:04;9.47;;;6.57;;
71679;SDS011;59512;42.662;23.254;2022-07-25T12:36:30;9.65;;;6.75;;
71679;SDS011;59512;42.662;23.254;2022-07-25T12:38:55;9.80;;;6.27;;
71679;SDS011;59512;42.662;23.254;2022-07-25T12:41:20;11.23;;;6.40;;
71679;SDS011;59512;42.662;23.254;2022-07-25T12:43:47;9.75;;;6.15;;
71679;SDS011;59512;42.662;23.254;2022-07-25T12:46:13;8.97;;;6.70;;
71679;SDS011;59512;42.662;23.254;2022-07-25T12:48:39;9.07;;;6.70;;
71679;SDS011;59512;42.662;23.254;2022-07-25T12:51:04;8.57;;;5.97;;
71679;SDS011;59512;42.662;23.254;2022-07-25T12:53:29;11.23;;;6.60;;
71679;SDS011;59512;42.662;23.254;2022-07-25T12:55:54;11.57;;;6.63;;
71679;SDS011;59512;42.662;23.254;2022-07-25T12:58:21;8.63;;;6.90;;
71679;SDS011;59512;42.662;23.254;2022-07-25T13:00:46;9.90;;;6.65;;
71679;SDS011;59512;42.662;23.254;2022-07-25T13:03:13;9.75;;;6.95;;
71679;SDS011;59512;42.662;23.254;2022-07-25T13:05:38;11.53;;;6.67;;
71679;SDS011;59512;42.662;23.254;2022-07-25T13:08:04;9.67;;;6.57;;
71679;SDS011;59512;42.662;23.254;2022-07-25T13:10:30;10.05;;;6.60;;
71679;SDS011;59512;42.662;23.254;2022-07-25T13:12:55;8.80;;;6.53;;
71679;SDS011;59512;42.662;23.254;2022-07-25T13:15:20;10.90;;;7.20;;
71679;SDS011;59512;42.662;23.254;2022-07-25T13:17:47;11.52;;;7.47;;
71679;SDS011;59512;42.662;23.254;2022-07-25T13:20:12;10.17;;;6.40;;
71679;SDS011;59512;42.662;23.254;2022-07-25T13:22:39;10.77;;;7.00;;
71679;SDS011;59512;42.662;23.254;2022-07-25T13:25:05;9.00;;;6.57;;
71679;SDS011;59512;42.662;23.254;2022-07-25T13:27:30;11.43;;;6.67;;
71679;SDS011;59512;42.662;23.254;2022-07-25T13:29:55;9.13;;;6.60;;
71679;SDS011;59512;42.662;23.254;2022-07-25T13:32:21;10.33;;;6.57;;
71679;SDS011;59512;42.662;23.254;2022-07-25T13:34:47;11.67;;;7.07;;
71679;SDS011;59512;42.662;23.254;2022-07-25T13:37:12;10.13;;;6.80;;
71679;SDS011;59512;42.662;23.254;2022-07-25T13:39:38;9.10;;;6.53;;
71679;SDS011;59512;42.662;23.254;2022-07-25T13:42:06;9.90;;;6.30;;
71679;SDS011;59512;42.662;23.254;2022-07-25T13:44:31;8.80;;;6.40;;
71679;SDS011;59512;42.662;23.254;2022-07-25T13:46:56;9.93;;;6.20;;
71679;SDS011;59512;42.662;23.254;2022-07-25T13:49:23;11.30;;;6.27;;
71679;SDS011;59512;42.662;23.254;2022-07-25T13:51:48;10.13;;;6.65;;
71679;SDS011;59512;42.662;23.254;2022-07-25T13:54:13;8.57;;;6.33;;
71679;SDS011;59512;42.662;23.254;2022-07-25T13:56:39;10.37;;;6.90;;
71679;SDS011;59512;42.662;23.254;2022-07-25T13:59:05;11.43;;;6.60;;
71679;SDS011;59512;42.662;23.254;2022-07-25T14:01:30;10.63;;;7.23;;
71679;SDS011;59512;42.662;23.254;2022-07-25T14:03:55;9.50;;;6.67;;
71679;SDS011;59512;42.662;23.254;2022-07-25T14:06:21;9.60;;;6.37;;
71679;SDS011;59512;42.662;23.254;2022-07-25T14:08:46;8.57;;;6.27;;
71679;SDS011;59512;42.662;23.254;2022-07-25T14:11:12;9.60;;;6.17;;
71679;SDS011;59512;42.662;23.254;2022-07-25T14:13:37;9.90;;;5.80;;
71679;SDS011;59512;42.662;23.254;2022-07-25T14:16:02;11.67;;;7.00;;
71679;SDS011;59512;42.662;23.254;2022-07-25T14:18:28;9.07;;;6.50;;
71679;SDS011;59512;42.662;23.254;2022-07-25T14:20:55;9.32;;;6.38;;
71679;SDS011;59512;42.662;23.254;2022-07-25T14:23:20;9.37;;;6.27;;
71679;SDS011;59512;42.662;23.254;2022-07-25T14:25:45;9.80;;;7.43;;
71679;SDS011;59512;42.662;23.254;2022-07-25T14:28:11;10.77;;;6.63;;
71679;SDS011;59512;42.662;23.254;2022-07-25T14:30:36;8.80;;;6.03;;
71679;SDS011;59512;42.662;23.254;2022-07-25T14:33:01;10.47;;;6.50;;
71679;SDS011;59512;42.662;23.254;2022-07-25T14:35:27;9.53;;;6.57;;
71679;SDS011;59512;42.662;23.254;2022-07-25T14:37:52;8.37;;;5.87;;
71679;SDS011;59512;42.662;23.254;2022-07-25T14:40:17;9.53;;;6.57;;
71679;SDS011;59512;42.662;23.254;2022-07-25T14:42:43;9.53;;;6.43;;
71679;SDS011;59512;42.662;23.254;2022-07-25T14:45:09;8.85;;;6.50;;
71679;SDS011;59512;42.662;23.254;2022-07-25T14:47:34;8.90;;;6.40;;
71679;SDS011;59512;42.662;23.254;2022-07-25T14:50:00;8.43;;;6.00;;